Impacts TAF Board
For situational awareness. Not to be used for flight planning purposes.
IDs:

KMDW - Chicago/Midway Intl, IL, US

Issued at 1120 UTC 10 Aug 2022
Updated at 1343 UTC 10 Aug 2022
Potential Impact None Slight Moderate High
Time1253Z 10/14Z 10/15Z 10/16Z 10/17Z 10/18Z 10/19Z 10/20Z 10/21Z 10/22Z 10/23Z 11/00Z 11/01Z 11/02Z>>
Type OBS PRVL PRVL PRVL PRVL PRVL PRVL PRVL PRVL PRVL PRVL PRVL PRVL PRVL
VIS 10 >6 >6 >6 >6 >6 >6 >6 >6 >6 >6 >6 >6 >6
CIG -- -- -- -- -- -- -- -- -- -- -- -- -- --
Cover FEW SKC FEW FEW FEW FEW FEW FEW FEW FEW FEW FEW FEW SKC
FltCat VFR VFR VFR VFR VFR VFR VFR VFR VFR VFR VFR VFR VFR VFR
WX -- -- -- -- -- -- -- -- -- -- -- -- -- --
WDir VRB 290 310 310 310 310 70 70 70 70 70 70 70 240
WSpd 0 4 7 7 7 7 7 7 7 7 7 7 7 5
WGst -- -- -- -- -- -- -- -- -- -- -- -- -- --
WSHgt -- -- -- -- -- -- -- -- -- -- -- -- -- --
WSDir -- -- -- -- -- -- -- -- -- -- -- -- -- --
WSSpd -- -- -- -- -- -- -- -- -- -- -- -- -- --
Raw TAF
KMDW 101120Z 1012/1118 29004KT P6SM SKC
  FM101500 31007KT P6SM FEW040
  FM101900 07007KT P6SM FEW050
  FM110200 24005KT P6SM SKC
  FM111000 05011G19KT P6SM SCT025 BKN050


Raw METAR
KMDW 101253Z 00000KT 10SM FEW035 FEW250 21/13 A3018 RMK AO2 SLP212 T02060128
KMDW 101153Z 00000KT 10SM FEW032 FEW250 18/13 A3017 RMK AO2 SLP209 T01830133 10189 20167 53010
KMDW 101053Z 00000KT 10SM FEW032 17/13 A3015 RMK AO2 SLP204 T01720128

METAR Board
Radar Display
Forecast Discussion
For situational awareness. Not to be used for flight planning purposes.